Airfield :







YOU CAN JOIN US ON...

 
LOGIN :

Register | Disclaimer

   EN    FR    IT 

 









Legend :    VFR   Marginal VFR   IFR   Intensive IFR   Very Intensive IFR
Visi :
Ceiling :
>= 8 km
>= 3000ft
5 to 8 km
1000 to 3000 ft
1500m to 5 km
500 to 1000 ft
800 to 1500m
200 to 500 ft
< 800m
< 200 ft
Symbols :   Thunderstorms  Fog  Heavy snow  Heavy precipitations  Wind > 20 kt







- Airport Elevation : 232 ft
- IATA code : YQM


CYQM - Greater Moncton International

CURRENT METAR :
  • 241952Z 36009G15KT 15SM -SHRA BKN005 OVC015 03/02 A2971 RMK SF7SC1 CVCTV CLD EMBD SLP063

EXPIRED METARs :
  • 241900Z 01011KT 15SM BKN008 BKN018 04/02 A2970 RMK SF5SC2 SLP062
  • 241800Z 35007KT 15SM OVC008 04/03 A2974 RMK SF8 SLP077
  • 241700Z 32007KT 300V010 15SM OVC010 05/03 A2974 RMK SF8 SLP074

TAF TAF CYQM
Valid from the 24 at 18:00 until the 25 at 18:00 UTC


241741Z 2418/2518 35010KT P6SM OVC012
TEMPO 2418/2421 OVC008
FM242100 01010KT P6SM OVC012
TEMPO 2421/2424 4SM -RA BR BKN006 OVC010
FM250000 36010KT 2SM -RA BR BKN003 OVC006
PROB30 2500/2508 3SM -PL BR
FM250800 36012KT 2SM -SN BR BKN003 OVC006
FM251200 02015KT 3SM -SN BKN003 OVC006
FM251400 01015KT 5SM -SN BKN008 OVC012 RMK NXT FCST BY 250000Z
CZQM FIR / North America



MET'MAP, your aeronautical weather chart ! - Copyright ORBIFLY December 2007 - Disclaimer

ORBIFLY MET'MAP TEAM :

Programming & Development : Alexandra Zaïnal
Concept & Development : Baudouin d'Aumeries
Co-Development & Prog : Marc-Olivier Méhu
Technical & hardware support : Manuel Goepfert

Contact : metmap@orbifly.com




SOURCES & CREDITS :

   NOAA